createdAt,value
2018-08-23T00:00:53.970Z,43.68
2018-08-23T00:15:51.656Z,44.46
2018-08-23T00:30:53.049Z,43.81
2018-08-23T00:45:53.673Z,44.25
2018-08-23T01:00:55.145Z,42.36
2018-08-23T01:15:51.061Z,40.71
2018-08-23T01:30:51.133Z,40.74
2018-08-23T01:45:51.039Z,40.19
2018-08-23T02:15:51.216Z,40.47
2018-08-23T02:30:57.281Z,40.83
2018-08-23T02:45:51.264Z,42.05
2018-08-23T03:00:51.067Z,41.13
2018-08-23T03:15:50.777Z,42.49
2018-08-23T03:31:00.281Z,42.36
2018-08-23T03:45:50.853Z,42.18
2018-08-23T04:15:50.418Z,42.68
2018-08-23T04:30:50.329Z,44.36
2018-08-23T04:45:50.355Z,43.79
2018-08-23T05:00:50.753Z,42.40
2018-08-23T05:15:50.745Z,40.55
2018-08-23T05:30:52.716Z,40.79
2018-08-23T05:45:53.582Z,38.05
2018-08-23T06:00:50.731Z,37.59
2018-08-23T06:15:57.868Z,35.38
2018-08-23T06:30:55.322Z,34.20
2018-08-23T07:00:50.569Z,32.97
2018-08-23T07:30:50.521Z,28.82
2018-08-23T07:45:51.320Z,27.88
2018-08-23T08:00:50.494Z,25.77
2018-08-23T08:15:50.925Z,26.60
2018-08-23T08:30:57.729Z,27.41
2018-08-23T08:45:57.253Z,27.11
2018-08-23T09:00:52.184Z,28.03
2018-08-23T09:15:50.863Z,28.59
2018-08-23T09:30:50.390Z,27.53
2018-08-23T09:45:50.498Z,28.20
2018-08-23T10:00:55.405Z,31.35
2018-08-23T10:15:55.879Z,31.77
2018-08-23T10:30:54.337Z,32.93
2018-08-23T10:45:52.878Z,33.43
2018-08-23T11:00:51.152Z,33.07
2018-08-23T11:30:51.976Z,34.25
2018-08-23T11:45:56.348Z,34.68
2018-08-23T12:00:50.656Z,34.80
2018-08-23T12:15:50.548Z,35.04
2018-08-23T12:30:50.733Z,36.37
2018-08-23T12:45:49.645Z,35.63
2018-08-23T13:00:51.204Z,35.71
2018-08-23T13:15:51.148Z,37.01
2018-08-23T13:30:50.953Z,37.06
2018-08-23T13:45:51.524Z,36.59
2018-08-23T14:00:50.657Z,36.55
2018-08-23T14:15:57.684Z,36.23
2018-08-23T14:30:50.386Z,36.36
2018-08-23T14:45:50.365Z,37.86
2018-08-23T15:00:50.814Z,38.38
2018-08-23T15:15:51.962Z,37.16
2018-08-23T15:30:50.679Z,38.83
2018-08-23T15:45:52.665Z,40.15
2018-08-23T16:00:51.113Z,41.31
2018-08-23T16:15:58.359Z,41.08
2018-08-23T16:30:51.625Z,42.08
2018-08-23T16:45:51.028Z,42.29
2018-08-23T17:00:50.546Z,43.33
2018-08-23T17:15:55.433Z,45.50
2018-08-23T17:30:50.539Z,44.83
2018-08-23T17:45:51.254Z,44.92
2018-08-23T18:00:50.868Z,44.42
2018-08-23T18:15:55.693Z,45.23
2018-08-23T18:30:50.670Z,45.35
2018-08-23T18:45:57.973Z,47.47
2018-08-23T19:00:51.052Z,49.13
2018-08-23T19:15:55.320Z,50.15
2018-08-23T19:30:52.368Z,51.06
2018-08-23T19:45:58.157Z,52.29
2018-08-23T20:00:52.437Z,51.41
2018-08-23T20:15:50.492Z,50.37
2018-08-23T20:30:50.419Z,51.04
2018-08-23T20:45:50.392Z,52.38
2018-08-23T21:00:53.767Z,51.66
2018-08-23T21:15:50.796Z,52.25
2018-08-23T21:30:51.344Z,51.78
2018-08-23T21:45:50.804Z,51.57
2018-08-23T22:15:50.527Z,50.64
2018-08-23T22:30:50.414Z,51.49
2018-08-23T22:45:50.345Z,53.22
2018-08-23T23:00:50.741Z,54.20
2018-08-23T23:15:50.737Z,54.18
2018-08-23T23:30:50.845Z,56.00
2018-08-23T23:45:53.244Z,56.92
